createdAt,value
2022-08-26T00:08:21.607Z,8.65
2022-08-26T00:18:22.952Z,8.45
2022-08-26T00:28:24.316Z,12.10
2022-08-26T00:38:26.109Z,7.72
2022-08-26T00:48:31.856Z,8.93
2022-08-26T00:58:34.187Z,10.07
2022-08-26T01:08:35.520Z,9.30
2022-08-26T01:18:36.900Z,9.73
2022-08-26T01:28:38.462Z,9.25
2022-08-26T01:38:42.125Z,7.97
2022-08-26T01:48:43.653Z,9.00
2022-08-26T01:58:45.311Z,11.13
2022-08-26T02:08:46.653Z,10.13
2022-08-26T02:18:48.040Z,9.20
2022-08-26T02:28:49.466Z,11.32
2022-08-26T02:38:50.797Z,10.27
2022-08-26T02:48:53.472Z,10.02
2022-08-26T02:58:55.218Z,9.35
2022-08-26T03:08:56.582Z,10.70
2022-08-26T03:18:58.043Z,9.75
2022-08-26T03:29:19.182Z,9.52
2022-08-26T03:39:20.583Z,9.70
2022-08-26T03:49:22.843Z,7.90
2022-08-26T03:59:24.253Z,11.25
2022-08-26T04:09:26.184Z,8.98
2022-08-26T04:19:28.026Z,10.98
2022-08-26T04:29:29.421Z,9.98
2022-08-26T04:39:30.795Z,10.48
2022-08-26T04:49:35.240Z,8.52
2022-08-26T04:59:39.340Z,10.77
2022-08-26T05:09:40.943Z,11.63
2022-08-26T05:19:43.010Z,9.77
2022-08-26T05:29:44.475Z,11.30
2022-08-26T05:39:51.218Z,15.10
2022-08-26T05:49:53.056Z,12.38
2022-08-26T05:59:54.430Z,15.35
2022-08-26T06:10:09.971Z,11.55
2022-08-26T06:20:17.218Z,10.82
2022-08-26T06:30:18.697Z,15.35
2022-08-26T06:40:22.673Z,10.65
2022-08-26T06:50:24.408Z,13.23
2022-08-26T07:00:26.366Z,9.77
2022-08-26T07:10:27.797Z,12.73
2022-08-26T07:20:29.075Z,12.80
2022-08-26T07:30:30.430Z,10.27
2022-08-26T07:40:32.058Z,13.02
2022-08-26T07:50:49.375Z,14.40
2022-08-26T08:00:51.783Z,13.10
2022-08-26T08:10:55.192Z,11.02
2022-08-26T08:21:10.800Z,18.70
2022-08-26T08:31:21.600Z,12.05
2022-08-26T08:41:29.888Z,11.70
2022-08-26T08:51:31.575Z,15.23
2022-08-26T09:01:35.217Z,11.93
2022-08-26T09:21:38.358Z,16.25
2022-08-26T09:31:41.404Z,10.07
2022-08-26T09:41:42.735Z,11.45
2022-08-26T09:51:44.595Z,14.98
2022-08-26T10:01:53.161Z,14.90
2022-08-26T10:11:54.686Z,13.75
2022-08-26T10:21:56.067Z,12.45
2022-08-26T10:31:58.797Z,13.65
2022-08-26T10:42:05.189Z,11.35
2022-08-26T10:52:12.391Z,12.68
2022-08-26T11:02:21.521Z,11.95
2022-08-26T11:12:26.048Z,8.40
2022-08-26T11:22:27.327Z,8.65
2022-08-26T11:32:28.680Z,12.20
2022-08-26T11:42:30.037Z,13.27
2022-08-26T11:52:31.370Z,12.05
2022-08-26T12:02:33.868Z,10.37
2022-08-26T12:12:37.354Z,8.75
2022-08-26T12:22:38.933Z,11.18
2022-08-26T12:32:57.311Z,11.93
2022-08-26T12:43:00.429Z,9.63
2022-08-26T12:53:01.739Z,8.90
2022-08-26T13:03:06.399Z,7.13
2022-08-26T13:13:07.975Z,9.77
2022-08-26T13:23:09.584Z,6.97
2022-08-26T13:33:12.267Z,10.38
2022-08-26T13:43:15.893Z,8.43
2022-08-26T13:53:17.375Z,7.38
2022-08-26T14:03:18.706Z,10.05
2022-08-26T14:13:20.201Z,10.40
2022-08-26T14:23:22.725Z,8.80
2022-08-26T14:33:24.367Z,11.13
2022-08-26T14:43:26.209Z,10.18
2022-08-26T14:53:46.203Z,10.77
2022-08-26T15:03:47.554Z,11.77
2022-08-26T15:13:48.881Z,13.30
2022-08-26T15:23:50.221Z,10.93
2022-08-26T15:33:52.642Z,11.15
2022-08-26T15:43:53.987Z,9.63
2022-08-26T15:53:58.604Z,7.68
2022-08-26T16:03:59.967Z,8.43
2022-08-26T16:14:01.319Z,8.70
2022-08-26T16:24:03.370Z,9.70
2022-08-26T16:34:04.765Z,9.90
2022-08-26T16:44:06.132Z,11.43
2022-08-26T16:54:07.771Z,13.68
2022-08-26T17:04:09.158Z,13.68
2022-08-26T17:14:10.473Z,10.05
2022-08-26T17:24:11.773Z,8.63
2022-08-26T17:34:13.149Z,9.25
2022-08-26T17:44:14.490Z,9.48
2022-08-26T17:54:15.804Z,10.38
2022-08-26T18:04:17.617Z,12.55
2022-08-26T18:14:19.135Z,11.23
2022-08-26T18:24:20.459Z,16.27
2022-08-26T18:34:21.780Z,16.85
2022-08-26T18:44:26.185Z,13.70
2022-08-26T18:54:27.503Z,14.88
2022-08-26T19:04:28.812Z,13.77
2022-08-26T19:14:30.178Z,13.32
2022-08-26T19:24:31.567Z,17.40
2022-08-26T19:34:32.916Z,14.70
2022-08-26T19:44:53.019Z,15.73
2022-08-26T19:54:54.280Z,14.77
2022-08-26T20:04:55.686Z,14.20
2022-08-26T20:14:56.955Z,14.10
2022-08-26T20:24:58.324Z,14.13
2022-08-26T20:35:00.896Z,13.50
2022-08-26T20:45:02.667Z,12.95
2022-08-26T20:55:03.980Z,13.93
2022-08-26T21:05:05.456Z,13.50
2022-08-26T21:15:07.354Z,18.30
2022-08-26T21:25:08.688Z,16.65
2022-08-26T21:35:10.015Z,12.55
2022-08-26T21:45:11.358Z,12.60
2022-08-26T21:55:12.720Z,21.02
2022-08-26T22:05:14.067Z,21.55
2022-08-26T22:15:15.840Z,23.50
2022-08-26T22:25:17.190Z,51.53
2022-08-26T22:35:28.716Z,58.50
2022-08-26T22:45:32.147Z,64.28
2022-08-26T22:55:33.509Z,62.28
2022-08-26T23:05:34.888Z,61.15
2022-08-26T23:15:36.298Z,65.20
2022-08-26T23:25:37.657Z,67.50
2022-08-26T23:35:38.979Z,57.58
2022-08-26T23:45:42.916Z,57.93
2022-08-26T23:55:44.304Z,59.38
